Terminal Aerodrome Forecast
Issued by NWS

Home | Current Version | Previous Version | Graphics & Text | Print | Product List | Glossary On
Versions: 1 2 3 4 5 6 7 8 9 10 11 12 13 14 15 16 17 18
000
FTUS43 KMPX 271720
TAFRWF
TAF
KRWF 271720Z 2718/2818 31004KT P6SM FEW050 BKN250
     FM280300 20006KT P6SM VCTS SCT050CB BKN120
      TEMPO 2804/2807 4SM SHRA OVC050
     FM280800 21009KT P6SM BKN050
     FM281200 29009KT P6SM SCT030 BKN050
     FM281500 32012G18KT P6SM BKN050=

USA.gov is the U.S. government's official web portal to all federal, state and local government web resources and services.